sensor_id;sensor_type;location;lat;lon;timestamp;pressure;altitude;pressure_sealevel;temperature;humidity
32933;BME280;19444;50.518;10.870;2023-04-19T00:00:16;97272.06;;;6.96;100.00
32933;BME280;19444;50.518;10.870;2023-04-19T00:03:13;97271.78;;;6.88;100.00
32933;BME280;19444;50.518;10.870;2023-04-19T00:06:10;97258.72;;;6.91;100.00
32933;BME280;19444;50.518;10.870;2023-04-19T00:09:10;97256.31;;;6.95;100.00
32933;BME280;19444;50.518;10.870;2023-04-19T00:12:07;97249.94;;;7.16;100.00
32933;BME280;19444;50.518;10.870;2023-04-19T00:15:05;97241.66;;;7.18;100.00
32933;BME280;19444;50.518;10.870;2023-04-19T00:18:02;97242.75;;;7.06;100.00
32933;BME280;19444;50.518;10.870;2023-04-19T00:20:59;97243.25;;;7.08;100.00
32933;BME280;19444;50.518;10.870;2023-04-19T00:23:56;97245.13;;;7.03;100.00
32933;BME280;19444;50.518;10.870;2023-04-19T00:26:53;97243.28;;;7.13;100.00
32933;BME280;19444;50.518;10.870;2023-04-19T00:29:50;97236.34;;;7.07;100.00
32933;BME280;19444;50.518;10.870;2023-04-19T00:32:47;97239.53;;;6.99;100.00
32933;BME280;19444;50.518;10.870;2023-04-19T00:35:44;97241.41;;;6.99;100.00
32933;BME280;19444;50.518;10.870;2023-04-19T00:38:41;97235.53;;;7.07;100.00
32933;BME280;19444;50.518;10.870;2023-04-19T00:41:38;97238.19;;;7.12;100.00
32933;BME280;19444;50.518;10.870;2023-04-19T00:44:35;97233.94;;;7.06;100.00
32933;BME280;19444;50.518;10.870;2023-04-19T00:47:32;97238.22;;;6.97;100.00
32933;BME280;19444;50.518;10.870;2023-04-19T00:50:29;97230.19;;;7.02;100.00
32933;BME280;19444;50.518;10.870;2023-04-19T00:53:26;97236.34;;;7.07;100.00
32933;BME280;19444;50.518;10.870;2023-04-19T00:56:26;97237.13;;;6.93;100.00
32933;BME280;19444;50.518;10.870;2023-04-19T00:59:23;97225.94;;;6.96;100.00
32933;BME280;19444;50.518;10.870;2023-04-19T01:02:20;97226.75;;;6.96;100.00
32933;BME280;19444;50.518;10.870;2023-04-19T01:05:18;97218.75;;;7.27;100.00
32933;BME280;19444;50.518;10.870;2023-04-19T01:08:15;97225.16;;;7.05;100.00
32933;BME280;19444;50.518;10.870;2023-04-19T01:11:12;97219.03;;;7.15;100.00
32933;BME280;19444;50.518;10.870;2023-04-19T01:14:09;97220.34;;;7.02;100.00
32933;BME280;19444;50.518;10.870;2023-04-19T01:17:06;97217.16;;;7.00;100.00
32933;BME280;19444;50.518;10.870;2023-04-19T01:20:05;97224.88;;;7.12;100.00
32933;BME280;19444;50.518;10.870;2023-04-19T01:23:03;97214.75;;;7.14;100.00
32933;BME280;19444;50.518;10.870;2023-04-19T01:26:03;97220.34;;;6.97;100.00
32933;BME280;19444;50.518;10.870;2023-04-19T01:29:00;97218.19;;;6.94;100.00
32933;BME280;19444;50.518;10.870;2023-04-19T01:31:57;97212.91;;;7.04;100.00
32933;BME280;19444;50.518;10.870;2023-04-19T01:34:54;97217.94;;;7.01;100.00
32933;BME280;19444;50.518;10.870;2023-04-19T01:37:51;97210.47;;;6.93;100.00
32933;BME280;19444;50.518;10.870;2023-04-19T01:40:51;97207.53;;;6.84;100.00
32933;BME280;19444;50.518;10.870;2023-04-19T01:43:48;97215.81;;;6.93;100.00
32933;BME280;19444;50.518;10.870;2023-04-19T01:46:45;97219.00;;;6.79;100.00
32933;BME280;19444;50.518;10.870;2023-04-19T01:49:42;97208.59;;;6.83;100.00
32933;BME280;19444;50.518;10.870;2023-04-19T01:52:39;97214.22;;;6.81;100.00
32933;BME280;19444;50.518;10.870;2023-04-19T01:55:36;97216.84;;;6.76;100.00
32933;BME280;19444;50.518;10.870;2023-04-19T01:58:33;97217.94;;;6.70;100.00
32933;BME280;19444;50.518;10.870;2023-04-19T02:01:30;97217.94;;;6.70;100.00
32933;BME280;19444;50.518;10.870;2023-04-19T02:04:26;97209.94;;;6.70;100.00
32933;BME280;19444;50.518;10.870;2023-04-19T02:07:23;97214.75;;;6.68;100.00
32933;BME280;19444;50.518;10.870;2023-04-19T02:10:20;97206.97;;;6.56;100.00
32933;BME280;19444;50.518;10.870;2023-04-19T02:13:17;97204.06;;;6.53;100.00
32933;BME280;19444;50.518;10.870;2023-04-19T02:16:14;97206.47;;;6.60;100.00
32933;BME280;19444;50.518;10.870;2023-04-19T02:19:11;97208.84;;;6.41;100.00
32933;BME280;19444;50.518;10.870;2023-04-19T02:22:08;97204.03;;;6.48;100.00
32933;BME280;19444;50.518;10.870;2023-04-19T02:25:05;97202.44;;;6.32;100.00
32933;BME280;19444;50.518;10.870;2023-04-19T02:28:02;97198.97;;;6.31;100.00
32933;BME280;19444;50.518;10.870;2023-04-19T02:31:06;97198.16;;;6.36;100.00
32933;BME280;19444;50.518;10.870;2023-04-19T02:34:03;97199.50;;;6.43;100.00
32933;BME280;19444;50.518;10.870;2023-04-19T02:37:01;97199.50;;;6.48;100.00
32933;BME280;19444;50.518;10.870;2023-04-19T02:39:59;97199.19;;;6.19;100.00
32933;BME280;19444;50.518;10.870;2023-04-19T02:42:56;97201.28;;;6.07;100.00
32933;BME280;19444;50.518;10.870;2023-04-19T02:45:52;97190.34;;;5.98;100.00
32933;BME280;19444;50.518;10.870;2023-04-19T02:48:49;97192.75;;;6.05;100.00
32933;BME280;19444;50.518;10.870;2023-04-19T02:51:46;97196.44;;;5.94;100.00
32933;BME280;19444;50.518;10.870;2023-04-19T02:54:43;97186.94;;;6.13;100.00
32933;BME280;19444;50.518;10.870;2023-04-19T02:57:40;97184.47;;;6.02;100.00
32933;BME280;19444;50.518;10.870;2023-04-19T03:00:37;97179.69;;;5.98;100.00
32933;BME280;19444;50.518;10.870;2023-04-19T03:03:34;97175.47;;;6.08;100.00
32933;BME280;19444;50.518;10.870;2023-04-19T03:06:31;97177.06;;;6.04;100.00
32933;BME280;19444;50.518;10.870;2023-04-19T03:09:28;97179.94;;;5.92;100.00
32933;BME280;19444;50.518;10.870;2023-04-19T03:12:25;97177.47;;;5.80;100.00
32933;BME280;19444;50.518;10.870;2023-04-19T03:15:21;97173.75;;;5.81;100.00
32933;BME280;19444;50.518;10.870;2023-04-19T03:18:18;97178.31;;;5.86;100.00
32933;BME280;19444;50.518;10.870;2023-04-19T03:21:16;97160.28;;;5.98;100.00
32933;BME280;19444;50.518;10.870;2023-04-19T03:24:13;97157.53;;;5.83;100.00
32933;BME280;19444;50.518;10.870;2023-04-19T03:27:10;97162.03;;;5.82;100.00
32933;BME280;19444;50.518;10.870;2023-04-19T03:30:08;97153.50;;;5.70;100.00
32933;BME280;19444;50.518;10.870;2023-04-19T03:33:05;97140.19;;;5.70;100.00
32933;BME280;19444;50.518;10.870;2023-04-19T03:36:02;97137.28;;;5.71;100.00
32933;BME280;19444;50.518;10.870;2023-04-19T03:38:59;97138.59;;;5.69;100.00
32933;BME280;19444;50.518;10.870;2023-04-19T03:41:58;97142.56;;;5.61;100.00
32933;BME280;19444;50.518;10.870;2023-04-19T03:44:55;97142.31;;;5.73;100.00
32933;BME280;19444;50.518;10.870;2023-04-19T03:47:52;97146.81;;;5.62;100.00
32933;BME280;19444;50.518;10.870;2023-04-19T03:50:48;97138.34;;;5.76;100.00
32933;BME280;19444;50.518;10.870;2023-04-19T03:53:45;97145.72;;;5.53;100.00
32933;BME280;19444;50.518;10.870;2023-04-19T03:56:42;97143.09;;;5.63;100.00
32933;BME280;19444;50.518;10.870;2023-04-19T03:59:39;97138.56;;;5.64;100.00
32933;BME280;19444;50.518;10.870;2023-04-19T04:02:37;97139.63;;;5.58;100.00
32933;BME280;19444;50.518;10.870;2023-04-19T04:05:35;97143.56;;;5.50;100.00
32933;BME280;19444;50.518;10.870;2023-04-19T04:08:32;97146.72;;;5.42;100.00
32933;BME280;19444;50.518;10.870;2023-04-19T04:11:29;97147.22;;;5.34;100.00
32933;BME280;19444;50.518;10.870;2023-04-19T04:14:26;97154.41;;;5.38;100.00
32933;BME280;19444;50.518;10.870;2023-04-19T04:17:23;97159.41;;;5.30;100.00
32933;BME280;19444;50.518;10.870;2023-04-19T04:20:20;97158.31;;;5.26;100.00
32933;BME280;19444;50.518;10.870;2023-04-19T04:23:17;97161.50;;;5.23;100.00
32933;BME280;19444;50.518;10.870;2023-04-19T04:26:14;97157.31;;;5.32;100.00
32933;BME280;19444;50.518;10.870;2023-04-19T04:29:11;97156.25;;;5.38;100.00
32933;BME280;19444;50.518;10.870;2023-04-19T04:32:08;97158.38;;;5.31;100.00
32933;BME280;19444;50.518;10.870;2023-04-19T04:35:07;97154.06;;;5.25;100.00
32933;BME280;19444;50.518;10.870;2023-04-19T04:38:05;97151.38;;;5.20;100.00
32933;BME280;19444;50.518;10.870;2023-04-19T04:41:19;97151.34;;;5.14;100.00
32933;BME280;19444;50.518;10.870;2023-04-19T04:44:18;97161.28;;;5.34;100.00
32933;BME280;19444;50.518;10.870;2023-04-19T04:47:16;97159.22;;;5.47;100.00
32933;BME280;19444;50.518;10.870;2023-04-19T04:50:13;97164.78;;;5.40;100.00
32933;BME280;19444;50.518;10.870;2023-04-19T04:53:10;97157.06;;;5.38;100.00
32933;BME280;19444;50.518;10.870;2023-04-19T04:56:10;97173.47;;;5.25;100.00
32933;BME280;19444;50.518;10.870;2023-04-19T04:59:07;97158.09;;;5.32;100.00
32933;BME280;19444;50.518;10.870;2023-04-19T05:02:04;97160.22;;;5.35;100.00
32933;BME280;19444;50.518;10.870;2023-04-19T05:05:01;97151.13;;;5.21;100.00
32933;BME280;19444;50.518;10.870;2023-04-19T05:07:58;97159.97;;;5.37;100.00
32933;BME280;19444;50.518;10.870;2023-04-19T05:10:55;97149.03;;;5.28;100.00
32933;BME280;19444;50.518;10.870;2023-04-19T05:13:52;97146.34;;;5.23;100.00
32933;BME280;19444;50.518;10.870;2023-04-19T05:16:49;97145.97;;;5.04;100.00
32933;BME280;19444;50.518;10.870;2023-04-19T05:19:46;97142.84;;;5.18;100.00
32933;BME280;19444;50.518;10.870;2023-04-19T05:22:43;97137.22;;;5.09;100.00
32933;BME280;19444;50.518;10.870;2023-04-19T05:25:40;97132.75;;;5.14;100.00
32933;BME280;19444;50.518;10.870;2023-04-19T05:28:37;97137.69;;;4.96;100.00
32933;BME280;19444;50.518;10.870;2023-04-19T05:31:34;97143.25;;;4.94;100.00
32933;BME280;19444;50.518;10.870;2023-04-19T05:34:31;97132.72;;;5.09;100.00
32933;BME280;19444;50.518;10.870;2023-04-19T05:37:29;97138.63;;;4.79;100.00
32933;BME280;19444;50.518;10.870;2023-04-19T05:40:26;97136.03;;;4.90;100.00
32933;BME280;19444;50.518;10.870;2023-04-19T05:43:23;97133.59;;;4.83;100.00
32933;BME280;19444;50.518;10.870;2023-04-19T05:46:21;97137.84;;;4.84;100.00
32933;BME280;19444;50.518;10.870;2023-04-19T05:49:17;97146.81;;;4.41;100.00
32933;BME280;19444;50.518;10.870;2023-04-19T05:52:14;97133.81;;;4.39;100.00
32933;BME280;19444;50.518;10.870;2023-04-19T05:55:12;97153.81;;;4.52;100.00
32933;BME280;19444;50.518;10.870;2023-04-19T05:58:09;97136.81;;;4.21;100.00
32933;BME280;19444;50.518;10.870;2023-04-19T06:01:06;97147.81;;;4.08;100.00
32933;BME280;19444;50.518;10.870;2023-04-19T06:04:03;97138.06;;;4.13;100.00
32933;BME280;19444;50.518;10.870;2023-04-19T06:07:01;97143.63;;;4.12;100.00
32933;BME280;19444;50.518;10.870;2023-04-19T06:10:01;97130.03;;;4.08;100.00
32933;BME280;19444;50.518;10.870;2023-04-19T06:12:58;97126.19;;;4.21;100.00
32933;BME280;19444;50.518;10.870;2023-04-19T06:15:55;97126.50;;;3.97;100.00
32933;BME280;19444;50.518;10.870;2023-04-19T06:18:52;97115.97;;;4.35;100.00
32933;BME280;19444;50.518;10.870;2023-04-19T06:21:49;97111.63;;;4.23;100.00
32933;BME280;19444;50.518;10.870;2023-04-19T06:24:47;97108.00;;;4.67;100.00
32933;BME280;19444;50.518;10.870;2023-04-19T06:27:44;97114.84;;;4.57;100.00
32933;BME280;19444;50.518;10.870;2023-04-19T06:30:41;97119.28;;;4.20;100.00
32933;BME280;19444;50.518;10.870;2023-04-19T06:33:38;97112.22;;;4.31;100.00
32933;BME280;19444;50.518;10.870;2023-04-19T06:36:35;97117.44;;;4.52;100.00
32933;BME280;19444;50.518;10.870;2023-04-19T06:39:32;97127.38;;;4.35;100.00
32933;BME280;19444;50.518;10.870;2023-04-19T06:42:28;97129.84;;;4.42;100.00
32933;BME280;19444;50.518;10.870;2023-04-19T06:45:25;97141.94;;;4.60;100.00
32933;BME280;19444;50.518;10.870;2023-04-19T06:48:22;97139.41;;;4.16;100.00
32933;BME280;19444;50.518;10.870;2023-04-19T06:51:19;97142.22;;;4.04;100.00
32933;BME280;19444;50.518;10.870;2023-04-19T06:54:16;97140.81;;;4.23;100.00
32933;BME280;19444;50.518;10.870;2023-04-19T06:57:14;97140.00;;;4.23;100.00
32933;BME280;19444;50.518;10.870;2023-04-19T07:00:12;97147.28;;;3.84;100.00
32933;BME280;19444;50.518;10.870;2023-04-19T07:03:09;97131.31;;;3.79;100.00
32933;BME280;19444;50.518;10.870;2023-04-19T07:06:07;97161.84;;;3.81;100.00
32933;BME280;19444;50.518;10.870;2023-04-19T07:09:05;97150.28;;;3.92;100.00
32933;BME280;19444;50.518;10.870;2023-04-19T07:12:04;97164.50;;;3.81;100.00
32933;BME280;19444;50.518;10.870;2023-04-19T07:15:01;97155.78;;;3.64;100.00
32933;BME280;19444;50.518;10.870;2023-04-19T07:17:59;97157.06;;;3.83;100.00
32933;BME280;19444;50.518;10.870;2023-04-19T07:20:56;97163.28;;;3.67;100.00
32933;BME280;19444;50.518;10.870;2023-04-19T07:23:53;97163.38;;;3.77;100.00
32933;BME280;19444;50.518;10.870;2023-04-19T07:26:50;97164.91;;;3.73;100.00
32933;BME280;19444;50.518;10.870;2023-04-19T07:29:47;97157.47;;;3.70;100.00
32933;BME280;19444;50.518;10.870;2023-04-19T07:32:44;97147.25;;;3.57;100.00
32933;BME280;19444;50.518;10.870;2023-04-19T07:35:42;97134.53;;;3.59;100.00
32933;BME280;19444;50.518;10.870;2023-04-19T07:38:39;97142.84;;;3.89;100.00
32933;BME280;19444;50.518;10.870;2023-04-19T07:41:36;97126.78;;;4.28;100.00
32933;BME280;19444;50.518;10.870;2023-04-19T07:44:33;97137.75;;;4.37;100.00
32933;BME280;19444;50.518;10.870;2023-04-19T07:47:30;97126.75;;;4.55;100.00
32933;BME280;19444;50.518;10.870;2023-04-19T07:50:27;97118.06;;;4.65;100.00
32933;BME280;19444;50.518;10.870;2023-04-19T07:53:24;97111.59;;;4.88;100.00
32933;BME280;19444;50.518;10.870;2023-04-19T07:56:21;97113.41;;;5.29;100.00
32933;BME280;19444;50.518;10.870;2023-04-19T07:59:18;97098.13;;;5.52;100.00
32933;BME280;19444;50.518;10.870;2023-04-19T08:02:15;97096.16;;;5.94;100.00
32933;BME280;19444;50.518;10.870;2023-04-19T08:05:15;97098.84;;;6.15;100.00
32933;BME280;19444;50.518;10.870;2023-04-19T08:08:13;97086.06;;;6.12;100.00
32933;BME280;19444;50.518;10.870;2023-04-19T08:11:10;97091.97;;;6.60;100.00
32933;BME280;19444;50.518;10.870;2023-04-19T08:14:07;97085.91;;;7.44;100.00
32933;BME280;19444;50.518;10.870;2023-04-19T08:17:22;97071.13;;;8.16;100.00
32933;BME280;19444;50.518;10.870;2023-04-19T08:20:26;97060.47;;;10.97;100.00
32933;BME280;19444;50.518;10.870;2023-04-19T08:23:23;97054.22;;;11.01;100.00
32933;BME280;19444;50.518;10.870;2023-04-19T08:26:33;97056.41;;;10.53;100.00
32933;BME280;19444;50.518;10.870;2023-04-19T08:29:30;97054.09;;;10.46;100.00
32933;BME280;19444;50.518;10.870;2023-04-19T08:32:29;97051.81;;;10.72;100.00
32933;BME280;19444;50.518;10.870;2023-04-19T08:35:26;97060.31;;;10.42;95.65
32933;BME280;19444;50.518;10.870;2023-04-19T08:38:23;97063.63;;;10.85;84.02
32933;BME280;19444;50.518;10.870;2023-04-19T08:41:20;97051.56;;;11.15;95.38
32933;BME280;19444;50.518;10.870;2023-04-19T08:44:19;97069.94;;;11.49;85.10
32933;BME280;19444;50.518;10.870;2023-04-19T08:47:33;97067.13;;;10.86;78.72
32933;BME280;19444;50.518;10.870;2023-04-19T08:50:40;97062.34;;;11.79;96.65
32933;BME280;19444;50.518;10.870;2023-04-19T08:53:57;97054.63;;;11.50;86.79
32933;BME280;19444;50.518;10.870;2023-04-19T08:56:58;97054.50;;;11.96;93.64
32933;BME280;19444;50.518;10.870;2023-04-19T08:59:55;97050.28;;;12.40;74.85
32933;BME280;19444;50.518;10.870;2023-04-19T09:02:53;97043.19;;;12.21;74.21
32933;BME280;19444;50.518;10.870;2023-04-19T09:05:51;97030.13;;;14.91;53.44
32933;BME280;19444;50.518;10.870;2023-04-19T09:08:48;97053.34;;;14.66;55.60
32933;BME280;19444;50.518;10.870;2023-04-19T09:11:48;97042.03;;;13.69;54.15
32933;BME280;19444;50.518;10.870;2023-04-19T09:14:46;97037.97;;;12.70;55.39
32933;BME280;19444;50.518;10.870;2023-04-19T09:18:08;97043.16;;;11.99;58.02
32933;BME280;19444;50.518;10.870;2023-04-19T09:21:06;97029.91;;;13.01;75.30
32933;BME280;19444;50.518;10.870;2023-04-19T09:24:03;97032.66;;;10.93;70.75
32933;BME280;19444;50.518;10.870;2023-04-19T09:27:00;97028.91;;;11.07;64.26
32933;BME280;19444;50.518;10.870;2023-04-19T09:29:59;97036.00;;;12.62;71.48
32933;BME280;19444;50.518;10.870;2023-04-19T09:32:56;97010.56;;;12.90;90.57
32933;BME280;19444;50.518;10.870;2023-04-19T09:35:53;97008.94;;;11.27;80.59
32933;BME280;19444;50.518;10.870;2023-04-19T09:38:50;97013.66;;;10.29;77.65
32933;BME280;19444;50.518;10.870;2023-04-19T09:41:53;97016.19;;;11.13;70.39
32933;BME280;19444;50.518;10.870;2023-04-19T09:44:58;97026.03;;;10.90;67.38
32933;BME280;19444;50.518;10.870;2023-04-19T09:48:04;97036.63;;;11.50;74.47
32933;BME280;19444;50.518;10.870;2023-04-19T09:51:03;97013.22;;;13.87;52.54
32933;BME280;19444;50.518;10.870;2023-04-19T09:54:10;97032.09;;;11.23;62.95
32933;BME280;19444;50.518;10.870;2023-04-19T09:57:07;97020.97;;;9.86;56.77
32933;BME280;19444;50.518;10.870;2023-04-19T10:00:04;97005.22;;;11.64;56.48
32933;BME280;19444;50.518;10.870;2023-04-19T10:03:05;97002.22;;;12.69;58.58
32933;BME280;19444;50.518;10.870;2023-04-19T10:06:03;96998.56;;;12.43;50.59
32933;BME280;19444;50.518;10.870;2023-04-19T10:09:10;97007.34;;;12.26;64.50
32933;BME280;19444;50.518;10.870;2023-04-19T10:12:09;96984.69;;;12.18;70.61
32933;BME280;19444;50.518;10.870;2023-04-19T10:15:26;96964.72;;;14.47;49.45
32933;BME280;19444;50.518;10.870;2023-04-19T10:18:39;96960.16;;;15.16;61.10
32933;BME280;19444;50.518;10.870;2023-04-19T10:21:37;96977.34;;;13.43;51.69
32933;BME280;19444;50.518;10.870;2023-04-19T10:24:34;96972.41;;;13.19;56.83
32933;BME280;19444;50.518;10.870;2023-04-19T10:27:33;96978.31;;;12.14;55.40
32933;BME280;19444;50.518;10.870;2023-04-19T10:30:31;96985.47;;;13.12;73.91
32933;BME280;19444;50.518;10.870;2023-04-19T10:33:35;96983.84;;;13.42;47.31
32933;BME280;19444;50.518;10.870;2023-04-19T10:36:33;96976.59;;;12.63;51.08
32933;BME280;19444;50.518;10.870;2023-04-19T10:39:41;96956.78;;;12.59;52.22
32933;BME280;19444;50.518;10.870;2023-04-19T10:46:08;96957.59;;;13.74;69.95
32933;BME280;19444;50.518;10.870;2023-04-19T10:49:11;96941.16;;;13.09;58.86
32933;BME280;19444;50.518;10.870;2023-04-19T10:52:26;96939.03;;;14.15;46.25
32933;BME280;19444;50.518;10.870;2023-04-19T10:55:25;96920.78;;;14.21;43.41
32933;BME280;19444;50.518;10.870;2023-04-19T10:58:22;96924.63;;;13.94;44.31
32933;BME280;19444;50.518;10.870;2023-04-19T11:01:39;96906.84;;;15.33;51.78
32933;BME280;19444;50.518;10.870;2023-04-19T11:07:48;96924.00;;;13.45;48.78
32933;BME280;19444;50.518;10.870;2023-04-19T11:10:45;96920.25;;;12.27;48.59
32933;BME280;19444;50.518;10.870;2023-04-19T11:13:42;96925.53;;;11.74;56.42
32933;BME280;19444;50.518;10.870;2023-04-19T11:16:39;96930.88;;;12.10;53.07
32933;BME280;19444;50.518;10.870;2023-04-19T11:22:55;96902.50;;;15.41;45.25
32933;BME280;19444;50.518;10.870;2023-04-19T11:25:57;96902.88;;;14.08;47.19
32933;BME280;19444;50.518;10.870;2023-04-19T11:28:54;96898.78;;;15.04;45.98
32933;BME280;19444;50.518;10.870;2023-04-19T11:31:51;96914.50;;;15.02;53.15
32933;BME280;19444;50.518;10.870;2023-04-19T11:34:48;96909.47;;;12.58;47.88
32933;BME280;19444;50.518;10.870;2023-04-19T11:37:45;96905.41;;;12.30;46.38
32933;BME280;19444;50.518;10.870;2023-04-19T11:40:42;96909.75;;;12.88;76.23
32933;BME280;19444;50.518;10.870;2023-04-19T11:43:39;96888.50;;;14.59;48.73
32933;BME280;19444;50.518;10.870;2023-04-19T11:46:37;96886.75;;;16.06;41.47
32933;BME280;19444;50.518;10.870;2023-04-19T11:49:33;96878.72;;;13.56;44.24
32933;BME280;19444;50.518;10.870;2023-04-19T11:52:34;96904.81;;;12.72;52.11
32933;BME280;19444;50.518;10.870;2023-04-19T11:55:32;96906.28;;;11.94;76.12
32933;BME280;19444;50.518;10.870;2023-04-19T11:58:32;96900.09;;;11.71;52.95
32933;BME280;19444;50.518;10.870;2023-04-19T12:01:31;96892.81;;;12.08;67.72
32933;BME280;19444;50.518;10.870;2023-04-19T12:04:28;96895.66;;;11.30;57.36
32933;BME280;19444;50.518;10.870;2023-04-19T12:07:25;96904.66;;;12.38;51.24
32933;BME280;19444;50.518;10.870;2023-04-19T12:10:22;96860.78;;;13.25;53.22
32933;BME280;19444;50.518;10.870;2023-04-19T12:13:19;96887.25;;;13.66;50.08
32933;BME280;19444;50.518;10.870;2023-04-19T12:16:26;96885.06;;;11.48;51.08
32933;BME280;19444;50.518;10.870;2023-04-19T12:19:23;96887.03;;;11.56;52.50
32933;BME280;19444;50.518;10.870;2023-04-19T12:22:20;96891.53;;;11.10;53.75
32933;BME280;19444;50.518;10.870;2023-04-19T12:25:19;96886.78;;;12.42;93.98
32933;BME280;19444;50.518;10.870;2023-04-19T12:28:16;96885.63;;;11.22;61.52
32933;BME280;19444;50.518;10.870;2023-04-19T12:31:13;96875.84;;;13.61;63.64
32933;BME280;19444;50.518;10.870;2023-04-19T12:34:10;96877.06;;;14.62;57.23
32933;BME280;19444;50.518;10.870;2023-04-19T12:37:07;96890.81;;;11.77;72.26
32933;BME280;19444;50.518;10.870;2023-04-19T12:40:05;96891.19;;;11.26;77.76
32933;BME280;19444;50.518;10.870;2023-04-19T12:43:02;96866.03;;;13.74;58.37
32933;BME280;19444;50.518;10.870;2023-04-19T12:45:59;96854.97;;;15.49;44.99
32933;BME280;19444;50.518;10.870;2023-04-19T12:48:57;96853.72;;;11.57;55.82
32933;BME280;19444;50.518;10.870;2023-04-19T12:51:54;96862.91;;;11.42;100.00
32933;BME280;19444;50.518;10.870;2023-04-19T12:54:53;96870.91;;;10.56;81.89
32933;BME280;19444;50.518;10.870;2023-04-19T12:57:50;96867.63;;;10.59;67.68
32933;BME280;19444;50.518;10.870;2023-04-19T13:00:47;96855.19;;;10.91;100.00
32933;BME280;19444;50.518;10.870;2023-04-19T13:03:44;96861.47;;;10.72;64.13
32933;BME280;19444;50.518;10.870;2023-04-19T13:06:41;96858.94;;;11.98;64.89
32933;BME280;19444;50.518;10.870;2023-04-19T13:09:38;96841.16;;;13.33;59.68
32933;BME280;19444;50.518;10.870;2023-04-19T13:12:35;96836.78;;;14.19;45.68
32933;BME280;19444;50.518;10.870;2023-04-19T13:15:33;96863.34;;;10.99;58.96
32933;BME280;19444;50.518;10.870;2023-04-19T13:18:29;96866.66;;;11.19;76.82
32933;BME280;19444;50.518;10.870;2023-04-19T13:21:26;96861.66;;;10.90;73.57
32933;BME280;19444;50.518;10.870;2023-04-19T13:24:23;96866.94;;;10.40;70.13
32933;BME280;19444;50.518;10.870;2023-04-19T13:27:20;96862.56;;;11.35;64.60
32933;BME280;19444;50.518;10.870;2023-04-19T13:30:17;96854.66;;;12.76;62.25
32933;BME280;19444;50.518;10.870;2023-04-19T13:33:14;96849.34;;;13.02;58.56
32933;BME280;19444;50.518;10.870;2023-04-19T13:36:11;96853.59;;;11.62;52.63
32933;BME280;19444;50.518;10.870;2023-04-19T13:39:08;96862.75;;;10.89;55.95
32933;BME280;19444;50.518;10.870;2023-04-19T13:42:05;96854.19;;;10.87;61.62
32933;BME280;19444;50.518;10.870;2023-04-19T13:45:02;96856.31;;;10.48;77.24
32933;BME280;19444;50.518;10.870;2023-04-19T13:48:00;96857.34;;;9.74;61.37
32933;BME280;19444;50.518;10.870;2023-04-19T13:50:58;96862.25;;;9.85;74.17
32933;BME280;19444;50.518;10.870;2023-04-19T13:53:55;96869.28;;;9.81;73.69
32933;BME280;19444;50.518;10.870;2023-04-19T13:56:51;96840.09;;;9.66;63.84
32933;BME280;19444;50.518;10.870;2023-04-19T13:59:48;96824.63;;;12.26;53.61
32933;BME280;19444;50.518;10.870;2023-04-19T14:02:45;96815.63;;;13.05;59.11
32933;BME280;19444;50.518;10.870;2023-04-19T14:05:45;96811.22;;;13.61;53.95
32933;BME280;19444;50.518;10.870;2023-04-19T14:08:42;96815.34;;;13.50;48.94
32933;BME280;19444;50.518;10.870;2023-04-19T14:11:39;96812.44;;;12.86;48.01
32933;BME280;19444;50.518;10.870;2023-04-19T14:14:36;96799.97;;;13.16;51.42
32933;BME280;19444;50.518;10.870;2023-04-19T14:17:32;96808.56;;;13.26;47.54
32933;BME280;19444;50.518;10.870;2023-04-19T14:20:31;96817.84;;;10.94;52.03
32933;BME280;19444;50.518;10.870;2023-04-19T14:23:28;96793.13;;;11.20;52.73
32933;BME280;19444;50.518;10.870;2023-04-19T14:26:25;96786.47;;;12.64;49.07
32933;BME280;19444;50.518;10.870;2023-04-19T14:29:23;96779.00;;;14.88;45.70
32933;BME280;19444;50.518;10.870;2023-04-19T14:32:20;96779.63;;;13.87;43.43
32933;BME280;19444;50.518;10.870;2023-04-19T14:35:22;96775.59;;;14.49;52.98
32933;BME280;19444;50.518;10.870;2023-04-19T14:38:19;96760.88;;;15.51;40.51
32933;BME280;19444;50.518;10.870;2023-04-19T14:41:16;96763.03;;;12.47;45.42
32933;BME280;19444;50.518;10.870;2023-04-19T14:44:13;96769.63;;;11.70;54.95
32933;BME280;19444;50.518;10.870;2023-04-19T14:47:10;96780.38;;;10.12;54.99
32933;BME280;19444;50.518;10.870;2023-04-19T14:50:07;96781.41;;;10.30;51.68
32933;BME280;19444;50.518;10.870;2023-04-19T14:53:05;96774.03;;;11.66;50.44
32933;BME280;19444;50.518;10.870;2023-04-19T14:56:05;96776.41;;;13.38;53.32
32933;BME280;19444;50.518;10.870;2023-04-19T14:59:04;96787.81;;;11.73;46.35
32933;BME280;19444;50.518;10.870;2023-04-19T15:02:00;96786.50;;;11.39;90.13
32933;BME280;19444;50.518;10.870;2023-04-19T15:04:57;96803.22;;;10.23;57.96
32933;BME280;19444;50.518;10.870;2023-04-19T15:07:55;96799.09;;;9.71;58.72
32933;BME280;19444;50.518;10.870;2023-04-19T15:10:52;96825.50;;;10.05;82.99
32933;BME280;19444;50.518;10.870;2023-04-19T15:13:48;96831.97;;;9.20;98.54
32933;BME280;19444;50.518;10.870;2023-04-19T15:16:45;96828.16;;;9.07;89.85
32933;BME280;19444;50.518;10.870;2023-04-19T15:19:42;96827.56;;;9.29;93.35
32933;BME280;19444;50.518;10.870;2023-04-19T15:22:42;96818.06;;;9.55;91.56
32933;BME280;19444;50.518;10.870;2023-04-19T15:25:39;96806.63;;;9.96;73.79
32933;BME280;19444;50.518;10.870;2023-04-19T15:28:36;96800.81;;;10.76;76.94
32933;BME280;19444;50.518;10.870;2023-04-19T15:31:34;96796.59;;;10.34;63.38
32933;BME280;19444;50.518;10.870;2023-04-19T15:34:30;96785.56;;;11.66;68.85
32933;BME280;19444;50.518;10.870;2023-04-19T15:37:27;96777.22;;;12.39;94.18
32933;BME280;19444;50.518;10.870;2023-04-19T15:40:24;96770.06;;;11.86;54.52